createdAt,value
2022-08-20T00:03:31.616Z,99187.05
2022-08-20T00:08:34.817Z,99204.20
2022-08-20T00:13:43.959Z,99222.73
2022-08-20T00:18:47.978Z,99221.33
2022-08-20T00:23:56.127Z,99221.29
2022-08-20T00:28:59.265Z,99221.93
2022-08-20T00:34:02.353Z,99231.97
2022-08-20T00:39:05.411Z,99230.77
2022-08-20T00:44:19.912Z,99223.44
2022-08-20T00:49:32.686Z,99215.11
2022-08-20T00:54:48.667Z,99194.02
2022-08-20T00:59:53.632Z,99180.46
2022-08-20T01:04:57.481Z,99175.73
2022-08-20T01:10:13.412Z,99166.90
2022-08-20T01:15:23.258Z,99159.57
2022-08-20T01:20:37.818Z,99149.14
2022-08-20T01:26:03.572Z,99147.46
2022-08-20T01:31:11.893Z,99139.75
2022-08-20T01:36:18.035Z,99146.09
2022-08-20T01:42:05.779Z,99137.29
2022-08-20T01:47:36.391Z,99135.79
2022-08-20T01:53:11.023Z,99136.54
2022-08-20T01:58:14.138Z,99137.19
2022-08-20T02:03:17.183Z,99142.19
2022-08-20T02:08:22.255Z,99136.66
2022-08-20T02:13:25.228Z,99137.10
2022-08-20T02:18:28.330Z,99152.55
2022-08-20T02:23:31.449Z,99170.82
2022-08-20T02:28:34.939Z,99175.98
2022-08-20T02:33:39.148Z,99168.20
2022-08-20T02:38:42.350Z,99159.52
2022-08-20T02:43:45.321Z,99154.71
2022-08-20T02:48:48.291Z,99154.66
2022-08-20T02:53:51.833Z,99152.86
2022-08-20T02:58:54.933Z,99142.77
2022-08-20T03:04:00.345Z,99136.31
2022-08-20T03:09:07.972Z,99117.60
2022-08-20T03:14:11.989Z,99110.23
2022-08-20T03:19:15.029Z,99101.11
2022-08-20T03:24:18.187Z,99102.36
2022-08-20T03:29:21.220Z,99100.31
2022-08-20T03:34:24.270Z,99090.96
2022-08-20T03:39:27.333Z,99086.89
2022-08-20T03:44:30.780Z,99104.28
2022-08-20T03:49:35.903Z,99109.55
2022-08-20T03:54:39.008Z,99110.34
2022-08-20T03:59:44.648Z,99106.60
2022-08-20T04:04:48.694Z,99105.91
2022-08-20T04:09:56.891Z,99112.52
2022-08-20T04:14:59.913Z,99106.23
2022-08-20T04:20:06.947Z,99103.12
2022-08-20T04:25:10.138Z,99110.66
2022-08-20T04:30:23.146Z,99116.35
2022-08-20T04:35:27.385Z,99129.77
2022-08-20T04:40:49.968Z,99132.63
2022-08-20T04:45:54.647Z,99133.10
2022-08-20T04:50:59.025Z,99139.05
2022-08-20T04:56:03.306Z,99138.42
2022-08-20T05:01:11.924Z,99146.72
2022-08-20T05:06:16.454Z,99149.27
2022-08-20T05:11:34.053Z,99150.88
2022-08-20T05:16:40.994Z,99148.58
2022-08-20T05:21:44.239Z,99141.48
2022-08-20T05:26:47.910Z,99141.92
2022-08-20T05:31:51.215Z,99140.23
2022-08-20T05:36:54.149Z,99139.84
2022-08-20T05:41:59.376Z,99138.19
2022-08-20T05:47:04.187Z,99137.83
2022-08-20T05:52:07.410Z,99140.24
2022-08-20T05:57:10.410Z,99131.77
2022-08-20T06:02:32.393Z,99130.58
2022-08-20T06:07:35.482Z,99127.14
2022-08-20T06:12:39.201Z,99127.45
2022-08-20T06:17:42.229Z,99124.67
2022-08-20T06:22:45.267Z,99118.14
2022-08-20T06:27:48.328Z,99107.17
2022-08-20T06:32:51.462Z,99104.16
2022-08-20T06:37:54.701Z,99113.95
2022-08-20T06:42:58.262Z,99118.09
2022-08-20T06:48:08.570Z,99127.98
2022-08-20T06:53:16.685Z,99127.85
2022-08-20T06:58:37.804Z,99125.33
2022-08-20T07:03:54.569Z,99123.03
2022-08-20T07:08:58.959Z,99119.45
2022-08-20T07:14:05.630Z,99118.40
2022-08-20T07:19:08.686Z,99116.91
2022-08-20T07:24:12.872Z,99117.57
2022-08-20T07:29:15.918Z,99135.23
2022-08-20T07:34:24.544Z,99130.80
2022-08-20T07:39:28.515Z,99125.26
2022-08-20T07:44:34.330Z,99122.11
2022-08-20T07:49:41.708Z,99115.18
2022-08-20T07:54:45.253Z,99112.57
2022-08-20T07:59:48.997Z,99104.59
2022-08-20T08:04:52.152Z,99093.20
2022-08-20T08:09:57.377Z,99087.00
2022-08-20T08:15:00.666Z,99079.66
2022-08-20T08:20:07.884Z,99078.37
2022-08-20T08:25:13.365Z,99075.33
2022-08-20T08:30:17.630Z,99080.54
2022-08-20T08:35:20.657Z,99083.48
2022-08-20T08:40:23.814Z,99084.39
2022-08-20T08:45:45.731Z,99088.79
2022-08-20T08:50:54.812Z,99100.25
2022-08-20T08:55:58.790Z,99109.94
2022-08-20T09:01:09.876Z,99108.98
2022-08-20T09:06:32.986Z,99111.73
2022-08-20T09:11:53.338Z,99112.19
2022-08-20T09:16:56.339Z,99104.54
2022-08-20T09:21:59.486Z,99100.88
2022-08-20T09:27:02.951Z,99097.45
2022-08-20T09:32:20.682Z,99099.45
2022-08-20T09:37:27.753Z,99092.05
2022-08-20T09:42:40.960Z,99082.40
2022-08-20T09:48:10.309Z,99082.02
2022-08-20T09:53:08.138Z,99080.25
2022-08-20T09:58:53.752Z,99075.45
2022-08-20T10:03:56.737Z,99067.59
2022-08-20T10:08:59.815Z,99066.64
2022-08-20T10:14:03.332Z,99065.86
2022-08-20T10:19:07.026Z,99069.23
2022-08-20T10:24:10.076Z,99065.23
2022-08-20T10:29:14.277Z,99062.72
2022-08-20T10:34:17.829Z,99060.59
2022-08-20T10:39:20.849Z,99062.06
2022-08-20T10:44:23.869Z,99062.31
2022-08-20T10:49:26.856Z,99054.50
2022-08-20T10:54:29.859Z,99051.28
2022-08-20T10:59:32.838Z,99048.58
2022-08-20T11:04:37.215Z,99057.00
2022-08-20T11:09:40.516Z,99061.59
2022-08-20T11:14:43.548Z,99053.90
2022-08-20T11:19:46.705Z,99052.92
2022-08-20T11:24:50.077Z,99050.59
2022-08-20T11:29:53.581Z,99055.52
2022-08-20T11:34:56.585Z,99057.60
2022-08-20T11:39:59.576Z,99054.94
2022-08-20T11:45:02.968Z,99057.53
2022-08-20T11:50:20.198Z,99050.20
2022-08-20T11:55:23.574Z,99044.42
2022-08-20T12:00:34.629Z,99034.42
2022-08-20T12:05:41.410Z,99038.06
2022-08-20T12:10:44.518Z,99031.77
2022-08-20T12:15:50.295Z,99028.15
2022-08-20T12:20:53.673Z,99029.13
2022-08-20T12:25:56.705Z,99022.98
2022-08-20T12:31:02.455Z,99018.71
2022-08-20T12:36:06.209Z,99009.75
2022-08-20T12:41:09.231Z,99001.60
2022-08-20T12:46:12.307Z,98993.21
2022-08-20T12:51:15.292Z,98988.89
2022-08-20T12:56:18.321Z,98987.98
2022-08-20T13:01:21.384Z,98979.84
2022-08-20T13:06:24.423Z,98972.68
2022-08-20T13:11:27.592Z,98971.16
2022-08-20T13:16:30.690Z,98975.08
2022-08-20T13:21:33.827Z,98972.73
2022-08-20T13:26:36.799Z,98964.75
2022-08-20T13:31:42.332Z,98970.13
2022-08-20T13:36:45.396Z,98972.30
2022-08-20T13:41:48.578Z,98979.19
2022-08-20T13:46:51.573Z,98987.74
2022-08-20T13:51:55.739Z,98991.01
2022-08-20T13:57:20.180Z,99001.91
2022-08-20T14:02:24.469Z,99011.12
2022-08-20T14:07:32.835Z,99013.80
2022-08-20T14:12:36.319Z,99016.67
2022-08-20T14:17:43.538Z,99018.27
2022-08-20T14:22:47.132Z,99021.86
2022-08-20T14:27:51.140Z,99026.73
2022-08-20T14:32:55.297Z,99030.42
2022-08-20T14:37:58.883Z,99027.84
2022-08-20T14:43:03.514Z,99032.16
2022-08-20T14:48:09.468Z,99022.96
2022-08-20T14:53:12.472Z,99014.96
2022-08-20T14:58:17.118Z,99012.83
2022-08-20T15:03:24.045Z,99007.77
2022-08-20T15:08:28.852Z,99003.96
2022-08-20T15:13:32.153Z,99001.34
2022-08-20T15:18:35.479Z,99008.09
2022-08-20T15:23:38.515Z,99005.89
2022-08-20T15:28:41.852Z,99000.96
2022-08-20T15:33:44.838Z,99000.35
2022-08-20T15:38:47.929Z,98995.26
2022-08-20T15:43:50.917Z,98994.23
2022-08-20T15:48:54.014Z,98994.89
2022-08-20T15:53:58.822Z,98987.33
2022-08-20T15:59:34.252Z,98986.05
2022-08-20T16:05:00.048Z,98993.48
2022-08-20T16:10:26.747Z,98987.84
2022-08-20T16:15:34.897Z,98992.95
2022-08-20T16:20:48.734Z,98988.89
2022-08-20T16:26:23.513Z,98997.51
2022-08-20T16:31:40.929Z,98992.82
2022-08-20T16:37:17.329Z,98993.13
2022-08-20T16:42:25.945Z,98994.98
2022-08-20T16:47:33.713Z,99001.41
2022-08-20T16:52:36.856Z,99006.61
2022-08-20T16:57:40.011Z,99009.61
2022-08-20T17:03:06.466Z,99016.85
2022-08-20T17:08:19.018Z,99019.42
2022-08-20T17:13:37.242Z,99022.00
2022-08-20T17:18:52.959Z,99021.41
2022-08-20T17:24:27.754Z,99025.02
2022-08-20T17:29:47.428Z,99034.20
2022-08-20T17:34:57.048Z,99034.42
2022-08-20T17:40:15.606Z,99031.73
2022-08-20T17:45:29.997Z,99037.88
2022-08-20T17:50:39.134Z,99039.48
2022-08-20T17:55:43.009Z,99045.25
2022-08-20T18:00:46.434Z,99056.05
2022-08-20T18:06:29.870Z,99065.39
2022-08-20T18:12:01.919Z,99070.11
2022-08-20T18:17:50.404Z,99064.64
2022-08-20T18:23:24.324Z,99067.88
2022-08-20T18:28:46.457Z,99069.77
2022-08-20T18:33:49.460Z,99071.05
2022-08-20T18:39:23.659Z,99068.35
2022-08-20T18:44:40.275Z,99067.85
2022-08-20T18:49:43.283Z,99061.05
2022-08-20T18:54:56.580Z,99055.13
2022-08-20T19:00:17.918Z,99063.91
2022-08-20T19:05:37.032Z,99065.52
2022-08-20T19:10:46.110Z,99069.02
2022-08-20T19:15:55.420Z,99068.18
2022-08-20T19:21:02.691Z,99065.17
2022-08-20T19:26:25.476Z,99060.59
2022-08-20T19:31:35.261Z,99062.70
2022-08-20T19:36:42.888Z,99057.99
2022-08-20T19:42:26.051Z,99056.98
2022-08-20T19:47:41.491Z,99048.29
2022-08-20T19:53:08.632Z,99057.05
2022-08-20T19:58:26.678Z,99054.81
2022-08-20T20:03:35.379Z,99054.39
2022-08-20T20:08:50.526Z,99046.70
2022-08-20T20:13:53.983Z,99046.70
2022-08-20T20:19:22.797Z,99040.91
2022-08-20T20:24:28.738Z,99034.63
2022-08-20T20:29:37.488Z,99031.48
2022-08-20T20:34:55.199Z,99030.64
2022-08-20T20:40:08.272Z,99028.19
2022-08-20T20:45:34.999Z,99031.14
2022-08-20T20:50:40.817Z,99029.56
2022-08-20T20:55:55.321Z,99025.17
2022-08-20T21:00:58.293Z,99021.45
2022-08-20T21:06:02.765Z,99027.52
2022-08-20T21:11:05.903Z,99023.73
2022-08-20T21:16:09.174Z,99022.60
2022-08-20T21:21:12.363Z,99022.02
2022-08-20T21:26:18.924Z,99019.50
2022-08-20T21:31:29.513Z,99015.14
2022-08-20T21:36:33.151Z,99011.57
2022-08-20T21:41:38.246Z,99009.27
2022-08-20T21:46:41.296Z,99010.44
2022-08-20T21:51:44.463Z,99010.73
2022-08-20T21:57:11.537Z,99009.56
2022-08-20T22:02:16.426Z,99014.65
2022-08-20T22:07:19.630Z,99019.13
2022-08-20T22:12:26.775Z,99026.47
2022-08-20T22:17:29.958Z,99026.85
2022-08-20T22:22:33.303Z,99035.80
2022-08-20T22:27:36.389Z,99048.47
2022-08-20T22:32:51.296Z,99041.31
2022-08-20T22:37:55.956Z,99048.59
2022-08-20T22:42:59.122Z,99057.20
2022-08-20T22:48:03.029Z,99060.36
2022-08-20T22:53:07.958Z,99064.30
2022-08-20T22:58:11.435Z,99069.05
2022-08-20T23:03:18.055Z,99072.47
2022-08-20T23:08:34.931Z,99069.02
2022-08-20T23:13:38.478Z,99063.71
2022-08-20T23:18:41.552Z,99067.61
2022-08-20T23:23:44.558Z,99064.91
2022-08-20T23:28:47.909Z,99064.34
2022-08-20T23:33:50.895Z,99058.83
2022-08-20T23:38:54.281Z,99062.13
2022-08-20T23:43:57.316Z,99063.97
2022-08-20T23:49:00.338Z,99064.14
2022-08-20T23:54:04.018Z,99059.55
2022-08-20T23:59:07.022Z,99055.61
